Time;durP1;ratioP1;P1;durP2;ratioP2;P2;SDS_P1;SDS_P2;PMS_P1;PMS_P2;Temp;Humidity;BMP_temperature;BMP_pressure;BME280_temperature;BME280_humidity;BME280_pressure;Samples;Min_cycle;Max_cycle;Signal;HPM_P1;HPM_P2
2023/12/25 00:01:24;;;;;;;19.50;10.00;;;;;;;0.61;100.00;99942.45;106002;1259;59586;-78
2023/12/25 00:03:51;;;;;;;15.80;8.30;;;;;;;0.61;100.00;99945.19;106044;1257;73036;-80
2023/12/25 00:06:19;;;;;;;17.30;8.90;;;;;;;0.60;100.00;99943.51;105774;1259;63756;-82
2023/12/25 00:08:48;;;;;;;14.00;8.20;;;;;;;0.58;100.00;99944.44;105936;1259;73139;-80
2023/12/25 00:11:15;;;;;;;18.60;8.50;;;;;;;0.55;100.00;99937.98;106400;1255;59981;-79
2023/12/25 00:13:42;;;;;;;16.50;8.40;;;;;;;0.54;100.00;99944.39;106083;1257;60083;-79
2023/12/25 00:16:09;;;;;;;14.30;7.60;;;;;;;0.53;100.00;99948.55;105979;1259;71511;-80
2023/12/25 00:18:35;;;;;;;11.60;6.10;;;;;;;0.51;100.00;99958.58;105932;1259;63774;-78
2023/12/25 00:21:04;;;;;;;12.30;7.80;;;;;;;0.50;100.00;99956.90;105730;1259;72525;-82
2023/12/25 00:23:31;;;;;;;10.70;7.60;;;;;;;0.49;100.00;99957.08;105727;1258;61027;-81
2023/12/25 00:25:58;;;;;;;9.10;5.70;;;;;;;0.49;100.00;99957.95;105751;1259;60196;-78
2023/12/25 00:28:25;;;;;;;11.90;7.00;;;;;;;0.47;100.00;99956.79;105704;1259;73240;-81
2023/12/25 00:30:52;;;;;;;8.30;6.00;;;;;;;0.46;100.00;99959.58;105739;1259;63849;-81
2023/12/25 00:33:19;;;;;;;9.40;5.40;;;;;;;0.44;100.00;99959.63;105697;1267;72669;-81
2023/12/25 00:35:46;;;;;;;7.30;5.10;;;;;;;0.44;100.00;99958.59;106434;1254;61085;-80
2023/12/25 00:38:13;;;;;;;7.80;5.10;;;;;;;0.44;100.00;99957.39;108670;1254;58764;-79
2023/12/25 00:40:41;;;;;;;8.30;5.30;;;;;;;0.44;100.00;99954.64;109097;1254;71709;-81
2023/12/25 00:43:09;;;;;;;8.30;4.70;;;;;;;0.46;100.00;99953.55;108537;1256;62416;-79
2023/12/25 00:45:36;;;;;;;9.30;5.40;;;;;;;0.47;100.00;99949.92;106872;1260;72629;-79
2023/12/25 00:48:03;;;;;;;8.50;5.40;;;;;;;0.48;100.00;99952.45;106365;1259;59746;-81
2023/12/25 00:50:30;;;;;;;5.70;4.30;;;;;;;0.49;100.00;99959.99;106457;1254;60301;-81
2023/12/25 00:52:57;;;;;;;6.30;4.30;;;;;;;0.49;100.00;99966.87;105877;1259;73015;-79
2023/12/25 00:55:24;;;;;;;7.20;4.90;;;;;;;0.50;100.00;99968.75;106256;1256;62498;-79
2023/12/25 00:57:52;;;;;;;6.20;4.90;;;;;;;0.52;100.00;99964.40;106119;1258;72797;-80
2023/12/25 01:00:21;;;;;;;6.60;5.10;;;;;;;0.53;100.00;99964.87;105813;1259;61033;-79
2023/12/25 01:02:48;;;;;;;7.20;5.30;;;;;;;0.54;100.00;99961.73;105619;1254;60023;-80
2023/12/25 01:05:15;;;;;;;8.10;5.20;;;;;;;0.54;100.00;99956.05;105763;1255;73100;-80
2023/12/25 01:07:43;;;;;;;12.70;6.30;;;;;;;0.53;100.00;99951.27;105742;1259;62700;-80
2023/12/25 01:10:11;;;;;;;8.50;5.00;;;;;;;0.53;100.00;99949.75;106030;1259;72621;-78
2023/12/25 01:12:39;;;;;;;8.10;4.50;;;;;;;0.52;100.00;99951.33;106255;1254;61160;-79
2023/12/25 01:15:07;;;;;;;7.20;4.80;;;;;;;0.51;100.00;99948.41;105709;1258;60186;-79
2023/12/25 01:17:34;;;;;;;7.10;5.30;;;;;;;0.49;100.00;99952.80;105746;1257;73188;-81
2023/12/25 01:20:01;;;;;;;7.50;4.80;;;;;;;0.44;100.00;99947.27;105537;1254;63965;-80
2023/12/25 01:22:28;;;;;;;7.50;6.40;;;;;;;0.40;100.00;99949.25;105691;1259;72541;-81
2023/12/25 01:24:55;;;;;;;6.70;5.30;;;;;;;0.36;100.00;99945.73;105696;1260;59716;-81
2023/12/25 01:27:22;;;;;;;7.10;5.50;;;;;;;0.34;100.00;99954.76;105756;1254;60192;-80
2023/12/25 01:29:50;;;;;;;8.20;5.80;;;;;;;0.31;100.00;99952.79;105764;1259;73044;-81
2023/12/25 01:32:17;;;;;;;10.20;5.00;;;;;;;0.27;100.00;99952.39;105958;1256;63603;-80
2023/12/25 01:34:43;;;;;;;9.70;5.50;;;;;;;0.22;100.00;99953.55;105724;1255;72631;-81
2023/12/25 01:37:10;;;;;;;10.20;5.80;;;;;;;0.15;100.00;99947.03;105946;1255;61209;-80
2023/12/25 01:39:37;;;;;;;7.30;5.30;;;;;;;0.10;100.00;99939.29;105832;1255;59647;-80
2023/12/25 01:42:04;;;;;;;7.60;5.60;;;;;;;0.01;100.00;99926.63;105754;1256;73159;-82
2023/12/25 01:44:31;;;;;;;7.80;4.80;;;;;;;-0.07;100.00;99921.53;105909;1257;62467;-78
2023/12/25 01:46:58;;;;;;;9.80;4.90;;;;;;;-0.14;100.00;99916.91;105758;1257;72438;-80
2023/12/25 01:49:25;;;;;;;7.20;4.90;;;;;;;-0.22;100.00;99914.20;105758;1257;61182;-82
2023/12/25 01:51:52;;;;;;;9.70;7.30;;;;;;;-0.29;100.00;99916.45;105838;1256;60378;-81
2023/12/25 01:54:19;;;;;;;6.60;4.90;;;;;;;-0.35;100.00;99918.52;105855;1252;73017;-81
2023/12/25 01:56:46;;;;;;;7.30;5.60;;;;;;;-0.42;100.00;99919.38;105906;1257;63845;-81
2023/12/25 01:59:13;;;;;;;10.00;5.30;;;;;;;-0.49;100.00;99915.79;105725;1259;72537;-81
2023/12/25 02:01:40;;;;;;;8.40;5.60;;;;;;;-0.55;100.00;99922.64;105763;1254;60417;-80
2023/12/25 02:04:08;;;;;;;7.90;5.00;;;;;;;-0.59;100.00;99937.69;106128;1257;60308;-79
2023/12/25 02:06:34;;;;;;;6.50;4.40;;;;;;;-0.65;100.00;99942.28;105899;1254;73064;-79
2023/12/25 02:09:02;;;;;;;6.80;4.60;;;;;;;-0.70;100.00;99942.59;106087;1257;63876;-80
2023/12/25 02:11:29;;;;;;;6.00;4.30;;;;;;;-0.75;100.00;99947.00;106000;1257;72625;-80
2023/12/25 02:13:59;;;;;;;6.40;4.50;;;;;;;-0.79;100.00;99951.38;106265;1255;61103;-80
2023/12/25 02:16:26;;;;;;;5.80;4.40;;;;;;;-0.82;100.00;99946.83;106001;1253;60190;-79
2023/12/25 02:18:52;;;;;;;7.40;5.10;;;;;;;-0.85;100.00;99944.66;106024;1257;73097;-81
2023/12/25 02:21:20;;;;;;;6.40;4.60;;;;;;;-0.88;100.00;99937.35;105751;1266;63855;-81
2023/12/25 02:23:47;;;;;;;5.60;4.40;;;;;;;-0.92;100.00;99932.66;105743;1257;71454;-80
2023/12/25 02:26:14;;;;;;;6.60;4.60;;;;;;;-0.95;100.00;99936.51;105727;1260;61055;-81
2023/12/25 02:28:41;;;;;;;7.40;5.10;;;;;;;-0.99;100.00;99944.31;105760;1259;59636;-80
2023/12/25 02:31:10;;;;;;;8.30;6.20;;;;;;;-1.02;100.00;99942.16;106147;1256;73141;-80
2023/12/25 02:33:37;;;;;;;8.80;5.00;;;;;;;-1.05;100.00;99935.02;106413;1254;62417;-80
2023/12/25 02:36:04;;;;;;;8.20;5.20;;;;;;;-1.09;100.00;99932.52;106090;1255;72583;-82
2023/12/25 02:38:31;;;;;;;10.20;7.00;;;;;;;-1.11;100.00;99931.55;105921;1258;61130;-79
2023/12/25 02:40:58;;;;;;;11.00;6.90;;;;;;;-1.13;100.00;99927.13;105877;1257;60136;-79
2023/12/25 02:43:26;;;;;;;12.50;7.90;;;;;;;-1.15;100.00;99929.08;105820;1256;73016;-82
2023/12/25 02:45:53;;;;;;;12.30;8.50;;;;;;;-1.18;100.00;99922.61;105965;1255;64172;-81
2023/12/25 02:48:21;;;;;;;16.00;10.60;;;;;;;-1.20;100.00;99916.68;105808;1256;72784;-81
2023/12/25 02:50:50;;;;;;;22.50;12.90;;;;;;;-1.21;100.00;99917.55;105676;1261;60667;-82
2023/12/25 02:53:17;;;;;;;15.90;9.90;;;;;;;-1.23;100.00;99921.88;106228;1258;59663;-79
2023/12/25 02:55:45;;;;;;;14.90;8.60;;;;;;;-1.25;100.00;99923.98;105782;1254;73063;-81
2023/12/25 02:58:12;;;;;;;13.30;8.30;;;;;;;-1.28;100.00;99925.93;105889;1259;62376;-82
2023/12/25 03:00:40;;;;;;;15.10;9.60;;;;;;;-1.31;100.00;99924.98;106368;1257;72654;-82
2023/12/25 03:03:09;;;;;;;15.80;9.10;;;;;;;-1.33;100.00;99924.16;107271;1255;61810;-80
2023/12/25 03:05:36;;;;;;;11.40;8.00;;;;;;;-1.35;100.00;99921.30;106845;1251;59511;-81
2023/12/25 03:08:03;;;;;;;15.20;8.20;;;;;;;-1.38;100.00;99917.92;106321;1251;72863;-80
2023/12/25 03:10:30;;;;;;;13.40;7.70;;;;;;;-1.39;100.00;99915.38;106015;1256;63854;-79
2023/12/25 03:12:57;;;;;;;17.60;9.80;;;;;;;-1.41;100.00;99912.69;105816;1258;72722;-81
2023/12/25 03:15:24;;;;;;;25.80;13.60;;;;;;;-1.43;100.00;99914.61;105928;1257;62160;-82
2023/12/25 03:17:51;;;;;;;17.90;10.50;;;;;;;-1.45;100.00;99915.00;105941;1251;60226;-80
2023/12/25 03:20:18;;;;;;;14.20;9.00;;;;;;;-1.47;100.00;99910.59;105918;1251;71879;-81
2023/12/25 03:22:45;;;;;;;10.10;7.40;;;;;;;-1.49;100.00;99915.27;106002;1257;63964;-80
2023/12/25 03:25:12;;;;;;;12.10;8.50;;;;;;;-1.51;100.00;99916.52;105916;1256;72267;-79
2023/12/25 03:27:39;;;;;;;14.60;8.60;;;;;;;-1.51;100.00;99914.96;105843;1252;62028;-81
2023/12/25 03:30:06;;;;;;;11.80;7.30;;;;;;;-1.52;100.00;99903.33;105867;1251;60593;-80
2023/12/25 03:32:34;;;;;;;14.90;8.80;;;;;;;-1.52;100.00;99903.15;105919;1251;73852;-79
2023/12/25 03:35:01;;;;;;;13.20;8.30;;;;;;;-1.52;100.00;99894.42;105974;1257;63919;-81
2023/12/25 03:37:30;;;;;;;14.10;8.00;;;;;;;-1.53;100.00;99893.07;105850;1256;72594;-80
2023/12/25 03:40:00;;;;;;;14.10;8.40;;;;;;;-1.53;100.00;99892.39;105906;1251;61976;-80
2023/12/25 03:42:28;;;;;;;14.10;9.20;;;;;;;-1.53;100.00;99892.90;105958;1252;60537;-82
2023/12/25 03:44:55;;;;;;;16.20;9.60;;;;;;;-1.53;100.00;99902.84;106064;1256;73816;-81
2023/12/25 03:47:23;;;;;;;16.00;9.10;;;;;;;-1.52;100.00;99906.08;105996;1257;63845;-81
2023/12/25 03:49:49;;;;;;;16.10;10.30;;;;;;;-1.51;100.00;99904.34;105902;1257;71516;-80
2023/12/25 03:52:17;;;;;;;14.20;9.00;;;;;;;-1.51;100.00;99907.08;106003;1257;61996;-83
2023/12/25 03:54:44;;;;;;;14.70;8.90;;;;;;;-1.50;100.00;99903.13;105891;1251;60441;-81
2023/12/25 03:57:11;;;;;;;13.40;8.80;;;;;;;-1.50;100.00;99910.15;105971;1257;73817;-82
2023/12/25 03:59:39;;;;;;;15.20;9.20;;;;;;;-1.49;100.00;99908.75;105900;1251;63982;-81
2023/12/25 04:02:06;;;;;;;14.30;9.70;;;;;;;-1.48;100.00;99912.16;105880;1256;71099;-80
2023/12/25 04:04:33;;;;;;;14.60;9.80;;;;;;;-1.45;100.00;99906.61;105907;1258;61897;-80
2023/12/25 04:07:00;;;;;;;19.10;11.20;;;;;;;-1.43;100.00;99901.42;105722;1251;60802;-82
2023/12/25 04:09:27;;;;;;;15.70;9.40;;;;;;;-1.40;100.00;99904.44;105827;1255;73814;-79
2023/12/25 04:11:54;;;;;;;14.50;8.10;;;;;;;-1.40;100.00;99911.64;105857;1258;63957;-81
2023/12/25 04:14:21;;;;;;;13.10;8.90;;;;;;;-1.41;100.00;99916.95;106114;1255;72788;-78
2023/12/25 04:16:48;;;;;;;17.40;9.10;;;;;;;-1.41;100.00;99912.86;106266;1263;61575;-81
2023/12/25 04:19:15;;;;;;;9.00;6.30;;;;;;;-1.43;100.00;99916.17;105848;1257;60416;-82
2023/12/25 04:21:41;;;;;;;14.70;8.70;;;;;;;-1.48;100.00;99913.86;105844;1251;72487;-82
2023/12/25 04:24:09;;;;;;;13.60;8.00;;;;;;;-1.52;100.00;99912.95;105943;1255;62394;-83
2023/12/25 04:26:37;;;;;;;14.70;7.60;;;;;;;-1.56;100.00;99906.86;106027;1251;71095;-81
2023/12/25 04:29:03;;;;;;;11.80;8.30;;;;;;;-1.58;100.00;99899.17;105749;1254;60570;-82
2023/12/25 04:31:30;;;;;;;13.10;8.50;;;;;;;-1.60;100.00;99896.31;107588;1251;60413;-80
2023/12/25 04:33:58;;;;;;;14.70;9.30;;;;;;;-1.61;100.00;99895.31;108953;1251;73747;-79
2023/12/25 04:36:25;;;;;;;14.30;9.00;;;;;;;-1.63;100.00;99889.54;107241;1251;62295;-80
2023/12/25 04:38:52;;;;;;;13.70;8.90;;;;;;;-1.67;100.00;99883.44;108110;1251;71231;-77
2023/12/25 04:41:21;;;;;;;15.80;8.80;;;;;;;-1.69;100.00;99885.02;108022;1251;61254;-82
2023/12/25 04:43:50;;;;;;;16.30;9.50;;;;;;;-1.70;100.00;99878.18;106959;1257;60490;-78
2023/12/25 04:46:18;;;;;;;14.10;9.20;;;;;;;-1.71;100.00;99875.46;107089;1256;73900;-79
2023/12/25 04:48:44;;;;;;;14.80;9.90;;;;;;;-1.71;100.00;99877.88;107005;1251;62379;-79
2023/12/25 04:51:11;;;;;;;13.80;9.10;;;;;;;-1.70;100.00;99870.48;106157;1251;72656;-81
2023/12/25 04:53:39;;;;;;;16.00;9.40;;;;;;;-1.69;100.00;99859.48;106196;1257;60901;-80
2023/12/25 04:56:10;;;;;;;16.80;9.70;;;;;;;-1.68;100.00;99852.95;106230;1251;60533;-80
2023/12/25 04:58:37;;;;;;;15.40;9.90;;;;;;;-1.64;100.00;99840.55;106294;1251;72609;-80
2023/12/25 05:01:05;;;;;;;14.00;8.20;;;;;;;-1.62;100.00;99827.29;107351;1257;61374;-80
2023/12/25 05:03:32;;;;;;;13.50;8.60;;;;;;;-1.60;100.00;99827.24;107231;1255;71445;-80
2023/12/25 05:05:59;;;;;;;13.30;9.20;;;;;;;-1.60;100.00;99825.87;106536;1251;60544;-82
2023/12/25 05:08:27;;;;;;;20.00;9.80;;;;;;;-1.60;100.00;99817.31;106152;1251;61729;-80
2023/12/25 05:10:56;;;;;;;12.60;9.20;;;;;;;-1.57;100.00;99816.20;105906;1256;71727;-80
2023/12/25 05:13:23;;;;;;;16.80;8.50;;;;;;;-1.53;100.00;99805.49;105827;1255;61374;-82
2023/12/25 05:15:50;;;;;;;13.30;9.10;;;;;;;-1.51;100.00;99791.73;105850;1256;73378;-82
2023/12/25 05:18:17;;;;;;;11.40;7.90;;;;;;;-1.50;100.00;99787.92;105921;1257;61943;-81
2023/12/25 05:20:45;;;;;;;18.50;10.00;;;;;;;-1.49;100.00;99789.95;105840;1252;60619;-82
2023/12/25 05:23:12;;;;;;;19.30;11.40;;;;;;;-1.47;100.00;99799.86;105815;1251;72578;-82
2023/12/25 05:25:39;;;;;;;16.90;10.30;;;;;;;-1.47;100.00;99802.42;106048;1256;63872;-82
2023/12/25 05:28:06;;;;;;;14.70;8.40;;;;;;;-1.48;100.00;99804.17;105932;1257;71926;-82
2023/12/25 05:30:33;;;;;;;12.40;8.40;;;;;;;-1.49;100.00;99813.95;105880;1251;61997;-81
2023/12/25 05:33:01;;;;;;;16.40;9.30;;;;;;;-1.49;100.00;99825.09;105959;1256;60303;-80
2023/12/25 05:35:29;;;;;;;18.10;9.30;;;;;;;-1.47;100.00;99828.98;105918;1251;74298;-82
2023/12/25 05:37:55;;;;;;;15.50;9.50;;;;;;;-1.46;100.00;99826.05;105980;1256;63914;-80
2023/12/25 05:40:24;;;;;;;18.10;11.30;;;;;;;-1.45;100.00;99824.33;106402;1256;72650;-82
2023/12/25 05:42:52;;;;;;;18.60;10.80;;;;;;;-1.44;100.00;99830.65;106075;1251;60412;-80
2023/12/25 05:45:21;;;;;;;19.40;11.90;;;;;;;-1.41;100.00;99824.40;106059;1251;60320;-80
2023/12/25 05:47:48;;;;;;;17.30;10.90;;;;;;;-1.37;100.00;99820.89;106022;1251;73672;-81
2023/12/25 05:50:15;;;;;;;21.40;10.50;;;;;;;-1.34;100.00;99820.80;106326;1255;63947;-81
2023/12/25 05:52:43;;;;;;;18.30;10.50;;;;;;;-1.29;100.00;99818.44;105895;1251;72630;-80
2023/12/25 05:55:10;;;;;;;11.80;8.60;;;;;;;-1.24;100.00;99813.02;106840;1251;62048;-79
2023/12/25 05:57:37;;;;;;;20.00;8.60;;;;;;;-1.20;100.00;99811.55;108510;1251;60299;-78
2023/12/25 06:00:05;;;;;;;11.40;8.90;;;;;;;-1.18;100.00;99813.20;108636;1251;72596;-79
2023/12/25 06:02:38;;;;;;;16.90;8.70;;;;;;;-1.17;100.00;99815.23;108181;1251;62393;-81
2023/12/25 06:05:05;;;;;;;11.20;7.90;;;;;;;-1.17;100.00;99821.41;108089;1251;72667;-78
2023/12/25 06:07:32;;;;;;;13.50;8.60;;;;;;;-1.18;100.00;99819.38;107724;1251;62127;-79
2023/12/25 06:10:00;;;;;;;13.20;8.40;;;;;;;-1.18;100.00;99818.00;107869;1251;60543;-80
2023/12/25 06:12:28;;;;;;;13.50;8.70;;;;;;;-1.16;100.00;99817.97;108374;1251;72473;-80
2023/12/25 06:14:56;;;;;;;14.00;8.20;;;;;;;-1.13;100.00;99814.80;107762;1251;62719;-78
2023/12/25 06:17:22;;;;;;;12.10;8.30;;;;;;;-1.11;100.00;99812.52;107307;1251;72628;-79
2023/12/25 06:19:49;;;;;;;14.50;8.20;;;;;;;-1.08;100.00;99808.85;106933;1251;60530;-79
2023/12/25 06:22:16;;;;;;;15.30;9.70;;;;;;;-1.05;100.00;99803.27;107107;1255;60408;-79
2023/12/25 06:24:43;;;;;;;11.60;7.50;;;;;;;-1.00;100.00;99804.19;106974;1251;72450;-81
2023/12/25 06:27:10;;;;;;;11.40;7.40;;;;;;;-0.97;100.00;99805.14;106440;1255;62290;-82
2023/12/25 06:29:38;;;;;;;12.80;8.20;;;;;;;-0.94;100.00;99804.54;106184;1254;71467;-81
2023/12/25 06:32:05;;;;;;;11.30;7.40;;;;;;;-0.90;100.00;99799.27;106060;1258;61694;-79
2023/12/25 06:34:32;;;;;;;13.20;8.30;;;;;;;-0.86;100.00;99797.82;106012;1251;60489;-83
2023/12/25 06:36:59;;;;;;;13.20;7.80;;;;;;;-0.84;100.00;99794.14;105975;1251;73829;-81
2023/12/25 06:39:26;;;;;;;12.60;7.70;;;;;;;-0.82;100.00;99787.93;106135;1256;65094;-80
2023/12/25 06:41:53;;;;;;;12.50;9.30;;;;;;;-0.83;100.00;99786.73;106303;1256;72755;-82
2023/12/25 06:44:20;;;;;;;12.90;8.40;;;;;;;-0.83;100.00;99782.96;106461;1251;60527;-80
2023/12/25 06:46:47;;;;;;;14.60;9.90;;;;;;;-0.83;100.00;99779.88;106227;1251;60422;-81
2023/12/25 06:49:14;;;;;;;15.00;8.60;;;;;;;-0.85;100.00;99783.55;106108;1256;73702;-81
2023/12/25 06:51:43;;;;;;;10.90;7.90;;;;;;;-0.87;100.00;99784.97;106223;1251;62155;-80
2023/12/25 06:54:11;;;;;;;15.60;9.80;;;;;;;-0.88;100.00;99785.16;106373;1251;72514;-80
2023/12/25 06:56:39;;;;;;;14.50;10.10;;;;;;;-0.91;100.00;99777.01;108651;1251;59957;-80
2023/12/25 06:59:06;;;;;;;20.60;10.10;;;;;;;-0.93;100.00;99773.13;108984;1251;58960;-82
2023/12/25 07:01:34;;;;;;;17.80;8.80;;;;;;;-0.96;100.00;99773.38;108164;1255;72751;-80
2023/12/25 07:04:00;;;;;;;19.30;11.80;;;;;;;-0.99;100.00;99772.06;106761;1255;63129;-82
2023/12/25 07:06:27;;;;;;;14.60;9.10;;;;;;;-1.00;100.00;99775.20;106264;1255;72700;-80
2023/12/25 07:08:54;;;;;;;17.90;8.70;;;;;;;-1.04;100.00;99777.37;106505;1251;60585;-79
2023/12/25 07:11:22;;;;;;;14.50;9.20;;;;;;;-1.08;100.00;99778.15;106573;1256;60507;-80
2023/12/25 07:13:49;;;;;;;14.80;10.30;;;;;;;-1.10;100.00;99770.14;106309;1256;73787;-80
2023/12/25 07:16:21;;;;;;;17.80;10.80;;;;;;;-1.08;100.00;99765.27;106355;1255;63747;-80
2023/12/25 07:18:49;;;;;;;15.80;10.10;;;;;;;-1.05;100.00;99760.91;106221;1251;71176;-79
2023/12/25 07:21:16;;;;;;;20.50;12.80;;;;;;;-1.02;100.00;99747.30;105981;1256;60559;-83
2023/12/25 07:23:43;;;;;;;16.00;10.60;;;;;;;-1.00;100.00;99745.52;106033;1255;60364;-82
2023/12/25 07:26:10;;;;;;;22.30;13.10;;;;;;;-0.98;100.00;99748.36;106001;1251;73750;-83
2023/12/25 07:28:36;;;;;;;24.20;13.10;;;;;;;-0.97;100.00;99746.62;106323;1252;64283;-81
2023/12/25 07:31:04;;;;;;;20.80;13.10;;;;;;;-0.94;100.00;99741.93;106333;1252;72655;-80
2023/12/25 07:33:34;;;;;;;18.70;11.40;;;;;;;-0.91;100.00;99732.23;106346;1256;61194;-81
2023/12/25 07:36:02;;;;;;;18.40;11.50;;;;;;;-0.89;100.00;99721.38;106186;1257;60322;-81
2023/12/25 07:38:30;;;;;;;15.40;10.30;;;;;;;-0.88;100.00;99717.05;106142;1256;74039;-82
2023/12/25 07:40:57;;;;;;;14.90;10.10;;;;;;;-0.88;100.00;99712.08;106008;1255;63898;-82
2023/12/25 07:43:26;;;;;;;23.60;13.20;;;;;;;-0.88;100.00;99715.35;105862;1252;72639;-84
2023/12/25 07:45:54;;;;;;;14.20;9.70;;;;;;;-0.88;100.00;99707.10;105924;1255;61139;-82
2023/12/25 07:48:21;;;;;;;12.30;8.10;;;;;;;-0.87;100.00;99697.30;105837;1251;60901;-83
2023/12/25 07:50:49;;;;;;;17.70;9.20;;;;;;;-0.89;100.00;99693.06;106109;1251;72636;-82
2023/12/25 07:53:17;;;;;;;16.30;9.00;;;;;;;-0.90;100.00;99686.91;106178;1255;62776;-82
2023/12/25 07:55:44;;;;;;;14.10;8.80;;;;;;;-0.89;100.00;99682.61;106066;1251;72632;-81
2023/12/25 07:58:11;;;;;;;12.60;8.50;;;;;;;-0.91;100.00;99677.34;105990;1256;61055;-83
2023/12/25 08:00:39;;;;;;;12.10;8.60;;;;;;;-0.94;100.00;99665.25;105983;1251;60630;-83
2023/12/25 08:03:06;;;;;;;18.40;10.00;;;;;;;-0.95;100.00;99662.88;105888;1251;73893;-83
2023/12/25 08:05:33;;;;;;;16.80;9.30;;;;;;;-0.95;100.00;99655.33;105871;1256;63892;-82
2023/12/25 08:07:59;;;;;;;19.50;10.50;;;;;;;-0.95;100.00;99644.16;105959;1252;71395;-81
2023/12/25 08:10:27;;;;;;;17.80;10.50;;;;;;;-0.96;100.00;99639.02;106008;1256;61052;-82
2023/12/25 08:12:55;;;;;;;15.00;8.60;;;;;;;-0.97;100.00;99638.90;105939;1256;60426;-83
2023/12/25 08:15:23;;;;;;;13.90;8.60;;;;;;;-0.99;100.00;99641.88;105927;1251;73734;-80
2023/12/25 08:17:50;;;;;;;17.70;11.10;;;;;;;-1.01;100.00;99629.58;105925;1251;62558;-81
2023/12/25 08:20:17;;;;;;;16.80;9.50;;;;;;;-1.02;100.00;99616.77;105912;1251;71487;-83
2023/12/25 08:22:44;;;;;;;13.40;9.40;;;;;;;-1.03;100.00;99611.64;106409;1255;60403;-82
2023/12/25 08:25:10;;;;;;;16.70;11.00;;;;;;;-1.04;100.00;99602.91;106460;1254;60402;-82
2023/12/25 08:27:37;;;;;;;18.10;10.60;;;;;;;-1.03;100.00;99596.55;105967;1256;73892;-83
2023/12/25 08:30:05;;;;;;;17.20;10.20;;;;;;;-1.03;100.00;99587.46;105921;1251;63647;-83
2023/12/25 08:32:33;;;;;;;17.10;10.90;;;;;;;-1.02;100.00;99581.26;106003;1255;70869;-83
2023/12/25 08:35:00;;;;;;;20.10;10.20;;;;;;;-1.01;100.00;99570.06;105999;1251;60989;-84
2023/12/25 08:37:26;;;;;;;16.60;9.30;;;;;;;-0.99;100.00;99567.95;105874;1255;60339;-84
2023/12/25 08:39:53;;;;;;;15.20;9.30;;;;;;;-0.98;100.00;99557.10;105851;1256;73742;-84
2023/12/25 08:42:21;;;;;;;20.40;11.50;;;;;;;-0.96;100.00;99553.46;105972;1255;63585;-86
2023/12/25 08:44:49;;;;;;;18.80;10.80;;;;;;;-0.95;100.00;99539.71;106758;1251;71077;-82
2023/12/25 08:47:15;;;;;;;17.00;9.80;;;;;;;-0.92;100.00;99524.34;106384;1255;61177;-84
2023/12/25 08:49:42;;;;;;;16.70;9.20;;;;;;;-0.89;100.00;99508.48;105895;1251;60626;-83
2023/12/25 08:52:10;;;;;;;16.10;10.10;;;;;;;-0.87;100.00;99505.80;105922;1256;74928;-83
2023/12/25 08:54:38;;;;;;;16.70;10.10;;;;;;;-0.85;100.00;99496.83;105927;1256;62059;-82
2023/12/25 08:57:05;;;;;;;13.40;9.20;;;;;;;-0.81;100.00;99499.30;105917;1256;71518;-83
2023/12/25 08:59:33;;;;;;;14.20;8.50;;;;;;;-0.81;100.00;99493.64;105896;1251;60480;-82
2023/12/25 09:02:00;;;;;;;15.80;8.70;;;;;;;-0.79;100.00;99486.55;106125;1253;60920;-82
2023/12/25 09:04:28;;;;;;;12.90;7.70;;;;;;;-0.79;100.00;99476.75;106060;1254;73735;-83
2023/12/25 09:06:55;;;;;;;17.90;9.70;;;;;;;-0.78;100.00;99470.88;106242;1251;63861;-82
2023/12/25 09:09:22;;;;;;;18.40;9.60;;;;;;;-0.77;100.00;99466.05;106663;1255;72593;-80
2023/12/25 09:11:49;;;;;;;16.10;9.00;;;;;;;-0.76;100.00;99463.09;107089;1251;62557;-79
2023/12/25 09:14:17;;;;;;;15.60;9.10;;;;;;;-0.76;100.00;99453.30;106857;1251;60431;-81
2023/12/25 09:16:44;;;;;;;17.40;9.10;;;;;;;-0.75;100.00;99452.95;106637;1251;73754;-81
2023/12/25 09:19:11;;;;;;;16.90;8.60;;;;;;;-0.75;100.00;99445.23;106694;1255;63994;-80
2023/12/25 09:21:39;;;;;;;11.80;8.40;;;;;;;-0.74;100.00;99432.48;108539;1251;71908;-81
2023/12/25 09:24:06;;;;;;;17.20;10.70;;;;;;;-0.73;100.00;99427.49;106860;1251;60508;-80
2023/12/25 09:26:33;;;;;;;12.00;8.20;;;;;;;-0.75;100.00;99430.11;106658;1251;60631;-79
2023/12/25 09:29:00;;;;;;;7.60;5.70;;;;;;;-0.76;100.00;99428.59;106147;1251;73627;-78
2023/12/25 09:31:28;;;;;;;10.70;6.50;;;;;;;-0.76;100.00;99424.65;106894;1255;63750;-82
2023/12/25 09:33:54;;;;;;;9.30;5.60;;;;;;;-0.73;100.00;99414.63;106025;1251;71532;-81
2023/12/25 09:36:24;;;;;;;8.00;6.20;;;;;;;-0.70;100.00;99403.71;105913;1251;61133;-81
2023/12/25 09:38:51;;;;;;;9.00;5.90;;;;;;;-0.67;100.00;99391.60;105937;1251;60486;-79
2023/12/25 09:41:19;;;;;;;11.70;7.50;;;;;;;-0.65;100.00;99386.34;105995;1251;72818;-80
2023/12/25 09:43:47;;;;;;;11.20;5.90;;;;;;;-0.61;100.00;99380.40;106418;1251;63721;-80
2023/12/25 09:46:14;;;;;;;7.40;6.00;;;;;;;-0.58;100.00;99375.16;106202;1251;71145;-81
2023/12/25 09:48:41;;;;;;;9.70;7.30;;;;;;;-0.55;100.00;99367.13;105974;1251;61131;-80
2023/12/25 09:51:08;;;;;;;10.30;6.20;;;;;;;-0.50;100.00;99361.83;105831;1251;60464;-80
2023/12/25 09:53:35;;;;;;;11.90;6.30;;;;;;;-0.46;100.00;99358.08;105942;1251;72937;-82
2023/12/25 09:56:03;;;;;;;9.80;6.40;;;;;;;-0.41;100.00;99349.99;105700;1257;64010;-82
2023/12/25 09:58:30;;;;;;;15.40;8.40;;;;;;;-0.37;100.00;99338.17;105928;1256;72721;-82
2023/12/25 10:01:02;;;;;;;9.40;5.30;;;;;;;-0.31;100.00;99321.64;105877;1255;61230;-82
2023/12/25 10:03:29;;;;;;;11.10;6.70;;;;;;;-0.27;100.00;99311.90;106003;1251;60441;-79
2023/12/25 10:05:56;;;;;;;15.30;7.00;;;;;;;-0.24;100.00;99307.81;105933;1251;73808;-80
2023/12/25 10:08:23;;;;;;;10.40;6.40;;;;;;;-0.20;100.00;99295.33;105973;1255;63869;-82
2023/12/25 10:10:54;;;;;;;14.00;8.80;;;;;;;-0.16;100.00;99292.75;105832;1251;71420;-83
2023/12/25 10:13:25;;;;;;;14.10;9.20;;;;;;;-0.11;100.00;99294.83;105845;1252;63031;-82
2023/12/25 10:15:52;;;;;;;8.60;5.60;;;;;;;-0.10;100.00;99286.70;105845;1255;60433;-83
2023/12/25 10:18:19;;;;;;;10.80;7.50;;;;;;;-0.10;100.00;99278.27;105813;1251;73707;-81
2023/12/25 10:21:00;;;;;;;13.70;8.00;;;;;;;-0.09;100.00;99271.55;105820;1251;63368;-80
2023/12/25 10:23:32;;;;;;;11.90;7.10;;;;;;;-0.06;100.00;99256.83;105837;1255;71178;-82
2023/12/25 10:26:04;;;;;;;14.20;8.50;;;;;;;-0.02;100.00;99256.85;105904;1251;60414;-83
2023/12/25 10:28:33;;;;;;;12.30;7.00;;;;;;;0.05;100.00;99240.62;106005;1251;62151;-83
2023/12/25 10:31:02;;;;;;;10.80;7.00;;;;;;;0.12;100.00;99233.64;105947;1251;75033;-81
2023/12/25 10:33:30;;;;;;;9.40;6.10;;;;;;;0.18;100.00;99231.48;106088;1251;62648;-79
2023/12/25 10:36:08;;;;;;;9.40;5.70;;;;;;;0.25;100.00;99228.48;106047;1251;71501;-82
2023/12/25 10:38:39;;;;;;;11.00;7.50;;;;;;;0.32;100.00;99218.38;105927;1251;60447;-84
2023/12/25 10:41:18;;;;;;;7.80;6.60;;;;;;;0.38;100.00;99221.22;105852;1255;60434;-82
2023/12/25 10:43:57;;;;;;;8.00;6.00;;;;;;;0.45;100.00;99213.77;105981;1255;73697;-82
2023/12/25 10:46:30;;;;;;;8.40;6.30;;;;;;;0.49;100.00;99209.10;105813;1256;63881;-83
2023/12/25 10:48:56;;;;;;;15.40;10.40;;;;;;;0.54;100.00;99198.06;105901;1253;73684;-83
2023/12/25 10:51:29;;;;;;;7.10;5.50;;;;;;;0.59;100.00;99194.73;105926;1251;60478;-82
2023/12/25 10:54:02;;;;;;;7.30;5.70;;;;;;;0.67;100.00;99182.55;106032;1253;61471;-78
2023/12/25 10:56:34;;;;;;;7.30;5.50;;;;;;;0.73;100.00;99180.57;105962;1256;73055;-80
2023/12/25 10:59:27;;;;;;;8.40;5.40;;;;;;;0.78;100.00;99161.77;106023;1255;64041;-81
2023/12/25 11:01:54;;;;;;;8.70;6.40;;;;;;;0.85;100.00;99149.27;105860;1252;70595;-81
2023/12/25 11:04:21;;;;;;;7.20;5.60;;;;;;;0.92;100.00;99141.90;105698;1251;60464;-83
2023/12/25 11:06:49;;;;;;;7.30;6.10;;;;;;;0.98;100.00;99125.10;105908;1256;60356;-80
2023/12/25 11:09:22;;;;;;;9.10;5.50;;;;;;;1.04;100.00;99121.94;106188;1256;73178;-79
2023/12/25 11:11:49;;;;;;;12.20;6.40;;;;;;;1.10;100.00;99114.63;105896;1255;64017;-78
2023/12/25 11:14:17;;;;;;;8.60;5.30;;;;;;;1.14;100.00;99121.48;105713;1251;73681;-80